X  Chiuso Dati meteorologici dell'aviazione (METAR)     LIBN Lecce Galatina Air Base
Temperatura
11°C Temperatura
9°C Punto di rugiada
88% Umidità



Vento
13 KM/H
8 MPH
4 M/S
7 KTS



150°
SSE
Condizioni attuali

Prevalentemente nuvoloso Prevalentemente nuvoloso
Pressione 1025.92 (hPa) - 30.3 (inHg)
Visibilità 6.2 (miglio) - 10 (km)
Aeroporto
Aeroporto-code LIBN

Posizione Lecce Galatina Air Base 16 (km)

Metar:
LIBN 250455Z 15007KT 9999 BKN050 11/09 Q1026 RMK BKN VIS MIN 9999 WIND THR14 15006KT WIND THR32 15006KT BLU

Ore: 25-01-2020 05:55 CET